sensor_id;sensor_type;location;lat;lon;timestamp;pressure;altitude;pressure_sealevel;temperature;humidity
79118;BME280;68523;51.336;-0.846;2023-03-23T00:03:05;98754.46;;;8.8;95.7
79118;BME280;68523;51.336;-0.846;2023-03-23T00:08:35;98757.51;;;8.9;94.7
79118;BME280;68523;51.336;-0.846;2023-03-23T00:14:05;98763.26;;;8.9;95.5
79118;BME280;68523;51.336;-0.846;2023-03-23T00:19:34;98775.80;;;8.9;95.6
79118;BME280;68523;51.336;-0.846;2023-03-23T00:24:36;98782.16;;;9.0;95.2
79118;BME280;68523;51.336;-0.846;2023-03-23T00:30:07;98785.27;;;9.0;94.4
79118;BME280;68523;51.336;-0.846;2023-03-23T00:35:36;98795.19;;;9.0;94.5
79118;BME280;68523;51.336;-0.846;2023-03-23T00:41:05;98795.26;;;9.0;93.9
79118;BME280;68523;51.336;-0.846;2023-03-23T00:46:35;98795.48;;;8.9;92.8
79118;BME280;68523;51.336;-0.846;2023-03-23T00:51:37;98802.97;;;8.9;91.5
79118;BME280;68523;51.336;-0.846;2023-03-23T00:57:01;98804.97;;;8.9;91.0
79118;BME280;68523;51.336;-0.846;2023-03-23T01:02:04;98808.49;;;8.9;91.2
79118;BME280;68523;51.336;-0.846;2023-03-23T01:07:33;98805.88;;;8.7;92.0
79118;BME280;68523;51.336;-0.846;2023-03-23T01:12:35;98810.36;;;8.7;92.0
79118;BME280;68523;51.336;-0.846;2023-03-23T01:17:38;98817.54;;;8.5;92.7
79118;BME280;68523;51.336;-0.846;2023-03-23T01:23:02;98835.66;;;8.5;93.0
79118;BME280;68523;51.336;-0.846;2023-03-23T01:28:05;98838.94;;;8.5;92.0
79118;BME280;68523;51.336;-0.846;2023-03-23T01:33:35;98847.35;;;8.4;92.0
79118;BME280;68523;51.336;-0.846;2023-03-23T01:38:37;98848.74;;;8.4;91.9
79118;BME280;68523;51.336;-0.846;2023-03-23T01:44:03;98857.13;;;8.5;91.1
79118;BME280;68523;51.336;-0.846;2023-03-23T01:49:35;98858.84;;;8.4;91.4
79118;BME280;68523;51.336;-0.846;2023-03-23T01:54:33;98858.76;;;8.4;91.6
79118;BME280;68523;51.336;-0.846;2023-03-23T01:59:37;98854.87;;;8.2;91.8
79118;BME280;68523;51.336;-0.846;2023-03-23T02:05:07;98846.71;;;8.2;91.9
79118;BME280;68523;51.336;-0.846;2023-03-23T02:10:05;98841.11;;;8.1;92.5
79118;BME280;68523;51.336;-0.846;2023-03-23T02:15:43;98839.11;;;8.0;92.6
79118;BME280;68523;51.336;-0.846;2023-03-23T02:20:50;98834.96;;;7.9;93.0
79118;BME280;68523;51.336;-0.846;2023-03-23T02:26:11;98833.18;;;7.9;92.8
79118;BME280;68523;51.336;-0.846;2023-03-23T02:31:15;98833.66;;;7.8;93.2
79118;BME280;68523;51.336;-0.846;2023-03-23T02:36:37;98832.84;;;7.8;93.5
79118;BME280;68523;51.336;-0.846;2023-03-23T02:41:39;98837.73;;;7.8;93.9
79118;BME280;68523;51.336;-0.846;2023-03-23T02:47:07;98841.14;;;7.8;94.0
79118;BME280;68523;51.336;-0.846;2023-03-23T02:52:10;98842.44;;;7.7;94.3
79118;BME280;68523;51.336;-0.846;2023-03-23T02:57:35;98845.39;;;7.6;94.5
79118;BME280;68523;51.336;-0.846;2023-03-23T03:02:39;98852.18;;;7.7;94.5
79118;BME280;68523;51.336;-0.846;2023-03-23T03:08:12;98850.09;;;7.6;94.9
79118;BME280;68523;51.336;-0.846;2023-03-23T03:13:39;98855.58;;;7.7;94.7
79118;BME280;68523;51.336;-0.846;2023-03-23T03:18:39;98854.38;;;7.7;94.5
79118;BME280;68523;51.336;-0.846;2023-03-23T03:24:06;98851.94;;;7.7;94.6
79118;BME280;68523;51.336;-0.846;2023-03-23T03:29:38;98853.27;;;7.7;94.8
79118;BME280;68523;51.336;-0.846;2023-03-23T03:34:37;98862.85;;;7.7;94.4
79118;BME280;68523;51.336;-0.846;2023-03-23T03:40:10;98867.51;;;7.7;94.0
79118;BME280;68523;51.336;-0.846;2023-03-23T03:45:33;98862.31;;;7.7;93.5
79118;BME280;68523;51.336;-0.846;2023-03-23T03:50:36;98870.83;;;7.7;93.1
79118;BME280;68523;51.336;-0.846;2023-03-23T03:56:06;98870.35;;;7.8;92.7
79118;BME280;68523;51.336;-0.846;2023-03-23T04:01:36;98877.43;;;7.7;92.4
79118;BME280;68523;51.336;-0.846;2023-03-23T04:07:05;98883.08;;;7.7;92.8
79118;BME280;68523;51.336;-0.846;2023-03-23T04:12:34;98889.36;;;7.6;93.2
79118;BME280;68523;51.336;-0.846;2023-03-23T04:17:37;98897.09;;;7.6;93.2
79118;BME280;68523;51.336;-0.846;2023-03-23T04:23:06;98901.24;;;7.6;93.5
79118;BME280;68523;51.336;-0.846;2023-03-23T04:28:35;98910.07;;;7.7;94.2
79118;BME280;68523;51.336;-0.846;2023-03-23T04:33:37;98910.47;;;7.7;94.7
79118;BME280;68523;51.336;-0.846;2023-03-23T04:39:01;98912.08;;;7.6;95.5
79118;BME280;68523;51.336;-0.846;2023-03-23T04:44:04;98910.71;;;7.6;96.0
79118;BME280;68523;51.336;-0.846;2023-03-23T04:49:33;98917.11;;;7.6;95.9
79118;BME280;68523;51.336;-0.846;2023-03-23T04:54:35;98919.64;;;7.7;95.6
79118;BME280;68523;51.336;-0.846;2023-03-23T04:59:38;98920.99;;;7.7;95.8
79118;BME280;68523;51.336;-0.846;2023-03-23T05:05:01;98929.84;;;7.6;96.3
79118;BME280;68523;51.336;-0.846;2023-03-23T05:10:06;98929.01;;;7.6;96.4
79118;BME280;68523;51.336;-0.846;2023-03-23T05:15:35;98929.57;;;7.6;96.4
79118;BME280;68523;51.336;-0.846;2023-03-23T05:20:38;98926.16;;;7.7;96.1
79118;BME280;68523;51.336;-0.846;2023-03-23T05:26:01;98930.68;;;7.7;95.7
79118;BME280;68523;51.336;-0.846;2023-03-23T05:31:04;98933.23;;;7.8;95.4
79118;BME280;68523;51.336;-0.846;2023-03-23T05:36:33;98929.99;;;7.8;94.9
79118;BME280;68523;51.336;-0.846;2023-03-23T05:41:35;98931.64;;;7.9;94.9
79118;BME280;68523;51.336;-0.846;2023-03-23T05:46:38;98922.44;;;8.0;94.8
79118;BME280;68523;51.336;-0.846;2023-03-23T05:52:01;98913.65;;;8.0;94.9
79118;BME280;68523;51.336;-0.846;2023-03-23T05:57:04;98914.61;;;8.0;94.7
79118;BME280;68523;51.336;-0.846;2023-03-23T06:02:33;98915.49;;;7.9;95.3
79118;BME280;68523;51.336;-0.846;2023-03-23T06:07:35;98909.78;;;8.0;96.2
79118;BME280;68523;51.336;-0.846;2023-03-23T06:12:39;98911.31;;;7.9;97.1
79118;BME280;68523;51.336;-0.846;2023-03-23T06:18:03;98912.75;;;7.9;98.1
79118;BME280;68523;51.336;-0.846;2023-03-23T06:23:06;98915.61;;;8.1;98.6
79118;BME280;68523;51.336;-0.846;2023-03-23T06:28:35;98908.41;;;8.1;99.2
79118;BME280;68523;51.336;-0.846;2023-03-23T06:33:38;98912.33;;;8.1;99.0
79118;BME280;68523;51.336;-0.846;2023-03-23T06:39:03;98914.48;;;8.4;98.5
79118;BME280;68523;51.336;-0.846;2023-03-23T06:44:06;98907.92;;;8.3;98.1
79118;BME280;68523;51.336;-0.846;2023-03-23T06:49:35;98911.88;;;8.5;97.5
79118;BME280;68523;51.336;-0.846;2023-03-23T06:54:37;98910.61;;;8.7;96.8
79118;BME280;68523;51.336;-0.846;2023-03-23T07:00:01;98907.28;;;8.7;96.3
79118;BME280;68523;51.336;-0.846;2023-03-23T07:05:04;98909.96;;;8.9;95.3
79118;BME280;68523;51.336;-0.846;2023-03-23T07:10:33;98917.85;;;8.9;94.7
79118;BME280;68523;51.336;-0.846;2023-03-23T07:15:36;98923.14;;;8.9;94.2
79118;BME280;68523;51.336;-0.846;2023-03-23T07:21:06;98919.45;;;8.9;93.8
79118;BME280;68523;51.336;-0.846;2023-03-23T07:26:35;98928.47;;;9.0;92.5
79118;BME280;68523;51.336;-0.846;2023-03-23T07:31:37;98928.92;;;9.4;91.0
79118;BME280;68523;51.336;-0.846;2023-03-23T07:37:01;98928.07;;;9.5;90.2
79118;BME280;68523;51.336;-0.846;2023-03-23T07:42:04;98933.55;;;9.5;89.6
79118;BME280;68523;51.336;-0.846;2023-03-23T07:47:32;98935.34;;;9.4;89.9
79118;BME280;68523;51.336;-0.846;2023-03-23T07:52:36;98935.72;;;9.5;89.7
79118;BME280;68523;51.336;-0.846;2023-03-23T07:58:05;98937.54;;;9.9;89.0
79118;BME280;68523;51.336;-0.846;2023-03-23T08:03:34;98939.20;;;10.1;87.4
79118;BME280;68523;51.336;-0.846;2023-03-23T08:08:36;98943.27;;;9.7;88.3
79118;BME280;68523;51.336;-0.846;2023-03-23T08:14:05;98950.10;;;9.9;87.8
79118;BME280;68523;51.336;-0.846;2023-03-23T08:19:34;98949.98;;;10.7;86.0
79118;BME280;68523;51.336;-0.846;2023-03-23T08:24:37;98946.66;;;10.2;87.4
79118;BME280;68523;51.336;-0.846;2023-03-23T08:30:02;98944.54;;;10.3;86.7
79118;BME280;68523;51.336;-0.846;2023-03-23T08:35:06;98950.39;;;10.1;88.1
79118;BME280;68523;51.336;-0.846;2023-03-23T08:40:35;98955.25;;;10.2;88.0
79118;BME280;68523;51.336;-0.846;2023-03-23T08:46:05;98963.15;;;10.1;87.8
79118;BME280;68523;51.336;-0.846;2023-03-23T08:51:35;98963.70;;;10.6;86.4
79118;BME280;68523;51.336;-0.846;2023-03-23T08:56:37;98965.36;;;10.8;85.0
79118;BME280;68523;51.336;-0.846;2023-03-23T09:02:01;98962.23;;;10.7;82.9
79118;BME280;68523;51.336;-0.846;2023-03-23T09:07:03;98960.54;;;10.8;82.6
79118;BME280;68523;51.336;-0.846;2023-03-23T09:12:07;98963.90;;;11.9;80.0
79118;BME280;68523;51.336;-0.846;2023-03-23T09:17:37;98959.13;;;11.0;83.1
79118;BME280;68523;51.336;-0.846;2023-03-23T09:23:01;98956.78;;;11.8;80.9
79118;BME280;68523;51.336;-0.846;2023-03-23T09:28:04;98954.93;;;11.6;80.9
79118;BME280;68523;51.336;-0.846;2023-03-23T09:33:33;98959.43;;;11.5;80.2
79118;BME280;68523;51.336;-0.846;2023-03-23T09:38:35;98955.37;;;11.4;81.0
79118;BME280;68523;51.336;-0.846;2023-03-23T09:44:12;98963.62;;;11.8;80.4
79118;BME280;68523;51.336;-0.846;2023-03-23T09:49:37;98963.62;;;11.1;82.1
79118;BME280;68523;51.336;-0.846;2023-03-23T09:54:37;98962.74;;;11.3;82.2
79118;BME280;68523;51.336;-0.846;2023-03-23T10:00:03;98937.14;;;11.9;80.8
79118;BME280;68523;51.336;-0.846;2023-03-23T10:05:19;98935.95;;;11.4;81.4
79118;BME280;68523;51.336;-0.846;2023-03-23T10:10:45;98946.22;;;11.3;82.3
79118;BME280;68523;51.336;-0.846;2023-03-23T10:15:39;98955.68;;;10.9;83.9
79118;BME280;68523;51.336;-0.846;2023-03-23T10:21:04;98961.99;;;11.7;82.3
79118;BME280;68523;51.336;-0.846;2023-03-23T10:26:42;98963.63;;;11.4;82.1
79118;BME280;68523;51.336;-0.846;2023-03-23T10:31:40;98957.30;;;10.3;89.0
79118;BME280;68523;51.336;-0.846;2023-03-23T10:37:11;98964.53;;;11.0;89.1
79118;BME280;68523;51.336;-0.846;2023-03-23T10:42:37;98967.12;;;11.5;86.4
79118;BME280;68523;51.336;-0.846;2023-03-23T10:48:08;98958.26;;;11.7;83.7
79118;BME280;68523;51.336;-0.846;2023-03-23T10:53:11;98958.54;;;11.9;81.8
79118;BME280;68523;51.336;-0.846;2023-03-23T10:58:06;98959.93;;;11.7;82.2
79118;BME280;68523;51.336;-0.846;2023-03-23T11:03:40;98967.32;;;11.8;81.8
79118;BME280;68523;51.336;-0.846;2023-03-23T11:09:11;98967.47;;;12.6;80.1
79118;BME280;68523;51.336;-0.846;2023-03-23T11:14:36;98964.30;;;12.7;79.7
79118;BME280;68523;51.336;-0.846;2023-03-23T11:20:11;98972.44;;;12.4;79.1
79118;BME280;68523;51.336;-0.846;2023-03-23T11:25:50;98981.98;;;12.6;78.9
79118;BME280;68523;51.336;-0.846;2023-03-23T11:30:37;98979.17;;;12.9;78.2
79118;BME280;68523;51.336;-0.846;2023-03-23T11:36:01;98978.71;;;12.4;79.7
79118;BME280;68523;51.336;-0.846;2023-03-23T11:41:10;98971.10;;;12.7;78.9
79118;BME280;68523;51.336;-0.846;2023-03-23T11:46:39;98955.16;;;12.6;79.2
79118;BME280;68523;51.336;-0.846;2023-03-23T11:52:13;98952.75;;;13.4;76.9
79118;BME280;68523;51.336;-0.846;2023-03-23T11:57:33;98936.79;;;12.5;78.5
79118;BME280;68523;51.336;-0.846;2023-03-23T12:02:42;98938.07;;;12.6;78.8
79118;BME280;68523;51.336;-0.846;2023-03-23T12:08:22;98934.58;;;12.5;76.6
79118;BME280;68523;51.336;-0.846;2023-03-23T12:13:18;98929.07;;;13.2;74.7
79118;BME280;68523;51.336;-0.846;2023-03-23T12:18:40;98944.94;;;13.6;73.6
79118;BME280;68523;51.336;-0.846;2023-03-23T12:23:45;98947.34;;;13.1;74.6
79118;BME280;68523;51.336;-0.846;2023-03-23T12:29:26;98935.38;;;13.5;74.0
79118;BME280;68523;51.336;-0.846;2023-03-23T12:34:41;98927.00;;;13.4;73.2
79118;BME280;68523;51.336;-0.846;2023-03-23T12:40:15;98895.97;;;13.2;71.8
79118;BME280;68523;51.336;-0.846;2023-03-23T12:45:11;98893.57;;;12.5;74.1
79118;BME280;68523;51.336;-0.846;2023-03-23T12:50:13;98906.11;;;12.7;74.1
79118;BME280;68523;51.336;-0.846;2023-03-23T12:55:39;98909.67;;;12.7;72.8
79118;BME280;68523;51.336;-0.846;2023-03-23T13:06:07;98914.18;;;13.5;71.9
79118;BME280;68523;51.336;-0.846;2023-03-23T13:11:10;98919.76;;;13.0;73.3
79118;BME280;68523;51.336;-0.846;2023-03-23T13:16:09;98908.91;;;13.6;71.0
79118;BME280;68523;51.336;-0.846;2023-03-23T13:21:41;98886.56;;;13.4;70.2
79118;BME280;68523;51.336;-0.846;2023-03-23T13:26:38;98896.03;;;12.6;72.5
79118;BME280;68523;51.336;-0.846;2023-03-23T13:31:38;98890.59;;;12.7;73.2
79118;BME280;68523;51.336;-0.846;2023-03-23T13:37:04;98877.75;;;13.4;70.5
79118;BME280;68523;51.336;-0.846;2023-03-23T13:42:34;98877.60;;;13.2;71.0
79118;BME280;68523;51.336;-0.846;2023-03-23T13:47:38;98864.20;;;13.6;70.5
79118;BME280;68523;51.336;-0.846;2023-03-23T13:53:12;98870.60;;;12.8;73.8
79118;BME280;68523;51.336;-0.846;2023-03-23T13:58:11;98868.66;;;13.0;73.7
79118;BME280;68523;51.336;-0.846;2023-03-23T14:03:38;98871.43;;;12.9;74.5
79118;BME280;68523;51.336;-0.846;2023-03-23T14:08:40;98866.36;;;12.5;76.5
79118;BME280;68523;51.336;-0.846;2023-03-23T14:14:06;98865.12;;;12.3;77.6
79118;BME280;68523;51.336;-0.846;2023-03-23T14:19:38;98874.81;;;12.0;80.3
79118;BME280;68523;51.336;-0.846;2023-03-23T14:25:08;98870.91;;;11.6;92.9
79118;BME280;68523;51.336;-0.846;2023-03-23T14:30:07;98865.00;;;11.2;88.4
79118;BME280;68523;51.336;-0.846;2023-03-23T14:35:08;98860.04;;;11.0;90.7
79118;BME280;68523;51.336;-0.846;2023-03-23T14:40:36;98855.77;;;10.9;93.1
79118;BME280;68523;51.336;-0.846;2023-03-23T14:46:07;98854.54;;;10.8;93.3
79118;BME280;68523;51.336;-0.846;2023-03-23T14:51:06;98845.92;;;10.9;93.8
79118;BME280;68523;51.336;-0.846;2023-03-23T14:56:36;98843.65;;;10.6;95.5
79118;BME280;68523;51.336;-0.846;2023-03-23T15:02:05;98845.36;;;10.4;96.3
79118;BME280;68523;51.336;-0.846;2023-03-23T15:07:36;98845.66;;;10.4;97.0
79118;BME280;68523;51.336;-0.846;2023-03-23T15:13:08;98829.08;;;10.3;96.3
79118;BME280;68523;51.336;-0.846;2023-03-23T15:18:37;98823.34;;;10.3;94.4
79118;BME280;68523;51.336;-0.846;2023-03-23T15:23:41;98815.30;;;10.2;94.3
79118;BME280;68523;51.336;-0.846;2023-03-23T15:29:17;98813.15;;;10.1;94.3
79118;BME280;68523;51.336;-0.846;2023-03-23T15:34:36;98802.22;;;10.1;94.7
79118;BME280;68523;51.336;-0.846;2023-03-23T15:40:14;98799.77;;;10.3;94.0
79118;BME280;68523;51.336;-0.846;2023-03-23T15:45:33;98784.89;;;9.9;97.5
79118;BME280;68523;51.336;-0.846;2023-03-23T15:50:35;98780.65;;;9.8;100.0
79118;BME280;68523;51.336;-0.846;2023-03-23T15:56:07;98776.24;;;9.4;99.8
79118;BME280;68523;51.336;-0.846;2023-03-23T16:01:10;98767.96;;;9.4;100.0
79118;BME280;68523;51.336;-0.846;2023-03-23T16:06:35;98761.44;;;9.5;100.0
79118;BME280;68523;51.336;-0.846;2023-03-23T16:12:04;98761.87;;;9.6;100.0
79118;BME280;68523;51.336;-0.846;2023-03-23T16:17:33;98738.07;;;9.5;100.0
79118;BME280;68523;51.336;-0.846;2023-03-23T16:22:36;98733.43;;;9.6;100.0
79118;BME280;68523;51.336;-0.846;2023-03-23T16:28:07;98718.00;;;9.6;100.0
79118;BME280;68523;51.336;-0.846;2023-03-23T16:33:06;98692.98;;;9.8;100.0
79118;BME280;68523;51.336;-0.846;2023-03-23T16:38:35;98708.41;;;9.6;100.0
79118;BME280;68523;51.336;-0.846;2023-03-23T16:43:37;98702.85;;;9.5;100.0
79118;BME280;68523;51.336;-0.846;2023-03-23T16:49:01;98694.00;;;9.6;100.0
79118;BME280;68523;51.336;-0.846;2023-03-23T16:54:04;98673.82;;;9.8;100.0
79118;BME280;68523;51.336;-0.846;2023-03-23T16:59:33;98638.04;;;9.8;100.0
79118;BME280;68523;51.336;-0.846;2023-03-23T17:04:36;98646.20;;;9.4;100.0
79118;BME280;68523;51.336;-0.846;2023-03-23T17:10:06;98636.58;;;9.4;100.0
79118;BME280;68523;51.336;-0.846;2023-03-23T17:15:37;98608.62;;;9.6;100.0
79118;BME280;68523;51.336;-0.846;2023-03-23T17:21:01;98592.46;;;9.5;100.0
79118;BME280;68523;51.336;-0.846;2023-03-23T17:26:04;98586.19;;;9.5;100.0
79118;BME280;68523;51.336;-0.846;2023-03-23T17:31:34;98586.48;;;9.5;100.0
79118;BME280;68523;51.336;-0.846;2023-03-23T17:36:36;98587.70;;;9.4;100.0
79118;BME280;68523;51.336;-0.846;2023-03-23T17:42:05;98569.82;;;9.5;100.0
79118;BME280;68523;51.336;-0.846;2023-03-23T17:47:34;98569.59;;;9.2;100.0
79118;BME280;68523;51.336;-0.846;2023-03-23T17:52:37;98550.03;;;9.4;100.0
79118;BME280;68523;51.336;-0.846;2023-03-23T17:58:01;98543.75;;;9.3;100.0
79118;BME280;68523;51.336;-0.846;2023-03-23T18:03:03;98521.08;;;9.3;100.0
79118;BME280;68523;51.336;-0.846;2023-03-23T18:08:33;98505.49;;;9.2;100.0
79118;BME280;68523;51.336;-0.846;2023-03-23T18:13:37;98506.47;;;9.3;100.0
79118;BME280;68523;51.336;-0.846;2023-03-23T18:19:06;98490.50;;;9.1;100.0
79118;BME280;68523;51.336;-0.846;2023-03-23T18:24:35;98491.30;;;9.1;100.0
79118;BME280;68523;51.336;-0.846;2023-03-23T18:29:37;98489.56;;;9.0;100.0
79118;BME280;68523;51.336;-0.846;2023-03-23T18:35:01;98490.25;;;9.0;100.0
79118;BME280;68523;51.336;-0.846;2023-03-23T18:40:05;98481.48;;;9.0;100.0
79118;BME280;68523;51.336;-0.846;2023-03-23T18:45:34;98472.33;;;9.1;100.0
79118;BME280;68523;51.336;-0.846;2023-03-23T18:50:37;98457.63;;;9.3;100.0
79118;BME280;68523;51.336;-0.846;2023-03-23T18:56:07;98456.99;;;9.2;100.0
79118;BME280;68523;51.336;-0.846;2023-03-23T19:01:09;98454.82;;;9.3;100.0
79118;BME280;68523;51.336;-0.846;2023-03-23T19:06:34;98458.96;;;9.3;100.0
79118;BME280;68523;51.336;-0.846;2023-03-23T19:11:36;98455.51;;;9.3;100.0
79118;BME280;68523;51.336;-0.846;2023-03-23T19:17:06;98443.59;;;9.3;100.0
79118;BME280;68523;51.336;-0.846;2023-03-23T19:22:35;98457.52;;;9.3;100.0
79118;BME280;68523;51.336;-0.846;2023-03-23T19:27:38;98457.69;;;9.3;100.0
79118;BME280;68523;51.336;-0.846;2023-03-23T19:33:02;98472.31;;;9.3;100.0
79118;BME280;68523;51.336;-0.846;2023-03-23T19:38:04;98483.29;;;9.3;100.0
79118;BME280;68523;51.336;-0.846;2023-03-23T19:43:34;98485.25;;;9.1;100.0
79118;BME280;68523;51.336;-0.846;2023-03-23T19:48:37;98489.91;;;9.1;100.0
79118;BME280;68523;51.336;-0.846;2023-03-23T19:54:06;98487.21;;;9.0;100.0
79118;BME280;68523;51.336;-0.846;2023-03-23T19:59:35;98481.48;;;9.1;100.0
79118;BME280;68523;51.336;-0.846;2023-03-23T20:04:38;98499.85;;;9.0;100.0
79118;BME280;68523;51.336;-0.846;2023-03-23T20:10:02;98501.56;;;9.0;100.0
79118;BME280;68523;51.336;-0.846;2023-03-23T20:15:06;98512.88;;;9.0;100.0
79118;BME280;68523;51.336;-0.846;2023-03-23T20:20:35;98515.11;;;9.0;100.0
79118;BME280;68523;51.336;-0.846;2023-03-23T20:25:37;98534.21;;;9.0;100.0
79118;BME280;68523;51.336;-0.846;2023-03-23T20:31:04;98528.71;;;8.9;100.0
79118;BME280;68523;51.336;-0.846;2023-03-23T20:36:03;98540.41;;;8.9;100.0
79118;BME280;68523;51.336;-0.846;2023-03-23T20:41:08;98546.38;;;8.9;100.0
79118;BME280;68523;51.336;-0.846;2023-03-23T20:46:37;98549.34;;;8.9;100.0
79118;BME280;68523;51.336;-0.846;2023-03-23T20:52:02;98545.52;;;9.0;100.0
79118;BME280;68523;51.336;-0.846;2023-03-23T20:57:06;98527.73;;;8.8;100.0
79118;BME280;68523;51.336;-0.846;2023-03-23T21:02:35;98520.09;;;8.9;100.0
79118;BME280;68523;51.336;-0.846;2023-03-23T21:07:37;98529.26;;;8.9;100.0
79118;BME280;68523;51.336;-0.846;2023-03-23T21:13:01;98546.14;;;8.9;100.0
79118;BME280;68523;51.336;-0.846;2023-03-23T21:18:04;98534.81;;;8.9;100.0
79118;BME280;68523;51.336;-0.846;2023-03-23T21:23:33;98546.91;;;8.8;100.0
79118;BME280;68523;51.336;-0.846;2023-03-23T21:28:36;98544.51;;;8.8;100.0
79118;BME280;68523;51.336;-0.846;2023-03-23T21:34:06;98549.77;;;8.8;100.0
79118;BME280;68523;51.336;-0.846;2023-03-23T21:39:35;98554.72;;;8.8;100.0
79118;BME280;68523;51.336;-0.846;2023-03-23T21:44:37;98560.31;;;8.8;100.0
79118;BME280;68523;51.336;-0.846;2023-03-23T21:50:02;98563.37;;;8.8;100.0
79118;BME280;68523;51.336;-0.846;2023-03-23T21:55:06;98566.22;;;8.8;100.0
79118;BME280;68523;51.336;-0.846;2023-03-23T22:00:35;98567.96;;;8.9;100.0
79118;BME280;68523;51.336;-0.846;2023-03-23T22:06:07;98572.93;;;8.8;100.0
79118;BME280;68523;51.336;-0.846;2023-03-23T22:11:07;98581.36;;;8.9;100.0
79118;BME280;68523;51.336;-0.846;2023-03-23T22:16:33;98582.55;;;8.9;100.0
79118;BME280;68523;51.336;-0.846;2023-03-23T22:21:36;98579.74;;;8.9;100.0
79118;BME280;68523;51.336;-0.846;2023-03-23T22:27:05;98578.94;;;8.9;100.0
79118;BME280;68523;51.336;-0.846;2023-03-23T22:32:34;98577.46;;;8.8;100.0
79118;BME280;68523;51.336;-0.846;2023-03-23T22:37:36;98576.42;;;8.7;100.0
79118;BME280;68523;51.336;-0.846;2023-03-23T22:43:06;98583.91;;;8.7;100.0
79118;BME280;68523;51.336;-0.846;2023-03-23T22:48:35;98587.14;;;8.7;100.0
79118;BME280;68523;51.336;-0.846;2023-03-23T22:54:05;98589.14;;;8.5;99.2
79118;BME280;68523;51.336;-0.846;2023-03-23T22:59:34;98599.11;;;8.6;99.1
79118;BME280;68523;51.336;-0.846;2023-03-23T23:04:37;98603.93;;;8.5;98.9
79118;BME280;68523;51.336;-0.846;2023-03-23T23:10:07;98614.46;;;8.4;98.6
79118;BME280;68523;51.336;-0.846;2023-03-23T23:15:39;98622.66;;;8.4;98.3
79118;BME280;68523;51.336;-0.846;2023-03-23T23:20:37;98625.84;;;8.3;98.5
79118;BME280;68523;51.336;-0.846;2023-03-23T23:26:01;98634.76;;;8.3;98.5
79118;BME280;68523;51.336;-0.846;2023-03-23T23:31:13;98636.37;;;8.2;98.4
79118;BME280;68523;51.336;-0.846;2023-03-23T23:36:33;98636.49;;;8.2;98.6
79118;BME280;68523;51.336;-0.846;2023-03-23T23:41:36;98641.72;;;8.2;98.6
79118;BME280;68523;51.336;-0.846;2023-03-23T23:47:05;98637.83;;;8.1;98.6
79118;BME280;68523;51.336;-0.846;2023-03-23T23:52:35;98644.71;;;8.1;98.9
79118;BME280;68523;51.336;-0.846;2023-03-23T23:57:38;98652.09;;;8.0;99.1
